createdAt,value
2019-04-05T00:00:30.661Z,54.70
2019-04-05T00:02:59.659Z,54.70
2019-04-05T00:05:28.837Z,54.70
2019-04-05T00:07:57.893Z,54.70
2019-04-05T00:10:26.971Z,54.70
2019-04-05T00:12:56.362Z,54.70
2019-04-05T00:15:25.421Z,54.70
2019-04-05T00:18:13.705Z,54.80
2019-04-05T00:20:42.816Z,54.70
2019-04-05T00:23:11.893Z,54.70
2019-04-05T00:25:40.875Z,54.80
2019-04-05T00:28:09.879Z,54.80
2019-04-05T00:30:38.843Z,54.80
2019-04-05T00:33:07.949Z,54.80
2019-04-05T00:35:37.563Z,54.80
2019-04-05T00:38:06.648Z,54.80
2019-04-05T00:40:36.098Z,54.70
2019-04-05T00:43:05.160Z,54.80
2019-04-05T00:45:34.295Z,54.80
2019-04-05T00:48:03.261Z,54.70
2019-04-05T00:50:32.275Z,54.80
2019-04-05T00:53:01.399Z,54.70
2019-04-05T00:55:30.359Z,54.80
2019-04-05T00:57:59.273Z,54.90
2019-04-05T01:00:28.775Z,54.90
2019-04-05T01:02:58.238Z,54.90
2019-04-05T01:05:27.421Z,54.70
2019-04-05T01:07:56.795Z,54.80
2019-04-05T01:10:25.816Z,55.00
2019-04-05T01:12:54.754Z,54.70
2019-04-05T01:15:24.158Z,55.00
2019-04-05T01:17:53.873Z,54.80
2019-04-05T01:20:25.113Z,54.80
2019-04-05T01:22:54.449Z,54.80
2019-04-05T01:25:23.357Z,54.90
2019-04-05T01:27:52.382Z,55.00
2019-04-05T01:30:21.493Z,54.90
2019-04-05T01:32:50.607Z,54.90
2019-04-05T01:35:20.761Z,54.90
2019-04-05T01:37:49.756Z,55.00
2019-04-05T01:40:19.157Z,55.00
2019-04-05T01:42:48.555Z,55.10
2019-04-05T01:45:17.584Z,55.40
2019-04-05T01:47:46.827Z,54.90
2019-04-05T01:50:16.359Z,54.80
2019-04-05T01:52:45.787Z,54.90
2019-04-05T01:55:15.735Z,54.80
2019-04-05T01:57:45.014Z,54.90
2019-04-05T02:00:14.374Z,54.90
2019-04-05T02:02:43.410Z,55.00
2019-04-05T02:05:15.707Z,54.90
2019-04-05T02:07:45.031Z,54.90
2019-04-05T02:10:14.559Z,54.90
2019-04-05T02:12:43.837Z,54.80
2019-04-05T02:15:23.855Z,54.80
2019-04-05T02:17:53.215Z,55.00
2019-04-05T02:20:24.309Z,54.80
2019-04-05T02:22:53.241Z,54.80
2019-04-05T02:25:22.349Z,55.00
2019-04-05T02:27:51.627Z,55.00
2019-04-05T02:30:20.844Z,55.00
2019-04-05T02:32:50.026Z,55.00
2019-04-05T02:35:19.373Z,54.90
2019-04-05T02:37:48.635Z,54.90
2019-04-05T02:40:18.205Z,54.90
2019-04-05T02:42:50.514Z,54.90
2019-04-05T02:45:20.437Z,54.80
2019-04-05T02:47:52.928Z,55.00
2019-04-05T02:50:25.260Z,55.10
2019-04-05T02:52:59.317Z,54.80
2019-04-05T02:55:29.345Z,54.70
2019-04-05T02:58:01.322Z,54.70
2019-04-05T03:00:32.478Z,55.10
2019-04-05T03:03:03.955Z,54.70
2019-04-05T03:05:33.770Z,54.70
2019-04-05T03:08:03.048Z,54.90
2019-04-05T03:10:56.073Z,54.80
2019-04-05T03:13:26.850Z,54.80
2019-04-05T03:15:59.317Z,54.90
2019-04-05T03:18:30.622Z,54.80
2019-04-05T03:21:02.995Z,54.80
2019-04-05T03:23:37.667Z,54.80
2019-04-05T03:26:08.583Z,55.00
2019-04-05T03:28:40.527Z,55.00
2019-04-05T03:31:10.062Z,55.00
2019-04-05T03:33:39.167Z,54.90
2019-04-05T03:36:08.522Z,55.00
2019-04-05T03:38:37.632Z,55.00
2019-04-05T03:41:07.042Z,55.00
2019-04-05T03:43:36.708Z,55.00
2019-04-05T03:46:06.297Z,55.00
2019-04-05T03:48:35.493Z,55.20
2019-04-05T03:51:04.630Z,55.60
2019-04-05T03:53:33.694Z,55.00
2019-04-05T03:56:03.181Z,55.00
2019-04-05T03:58:32.363Z,55.40
2019-04-05T04:01:01.629Z,55.30
2019-04-05T04:03:31.029Z,55.40
2019-04-05T04:06:00.208Z,55.20
2019-04-05T04:08:29.562Z,55.20
2019-04-05T04:10:58.892Z,55.10
2019-04-05T04:13:28.227Z,55.40
2019-04-05T04:15:57.552Z,55.30
2019-04-05T04:18:26.904Z,55.40
2019-04-05T04:21:00.619Z,55.60
2019-04-05T04:23:30.788Z,55.40
2019-04-05T04:26:00.059Z,55.50
2019-04-05T04:28:29.533Z,55.40
2019-04-05T04:31:02.207Z,55.40
2019-04-05T04:33:32.523Z,55.70
2019-04-05T04:36:01.965Z,55.70
2019-04-05T04:38:32.056Z,55.80
2019-04-05T04:41:01.936Z,55.90
2019-04-05T04:43:31.264Z,55.80
2019-04-05T04:46:01.095Z,55.70
2019-04-05T04:48:31.367Z,55.80
2019-04-05T04:51:00.975Z,55.60
2019-04-05T04:53:30.519Z,55.80
2019-04-05T04:55:59.773Z,55.80
2019-04-05T04:58:28.922Z,56.00
2019-04-05T05:01:01.984Z,56.20
2019-04-05T05:03:34.134Z,56.10
2019-04-05T05:06:04.515Z,56.30
2019-04-05T05:08:49.388Z,56.20
2019-04-05T05:11:20.826Z,56.30
2019-04-05T05:13:49.932Z,56.10
2019-04-05T05:16:19.374Z,56.30
2019-04-05T05:19:03.559Z,56.20
2019-04-05T05:21:33.177Z,56.10
2019-04-05T05:24:03.077Z,56.20
2019-04-05T05:26:32.793Z,56.10
2019-04-05T05:29:02.044Z,56.20
2019-04-05T05:31:31.281Z,55.90
2019-04-05T05:34:00.810Z,56.10
2019-04-05T05:36:30.179Z,56.30
2019-04-05T05:38:59.642Z,56.10
2019-04-05T05:41:29.058Z,56.00
2019-04-05T05:43:58.181Z,55.90
2019-04-05T05:46:27.250Z,56.20
2019-04-05T05:48:56.688Z,56.20
2019-04-05T05:51:25.730Z,56.00
2019-04-05T05:53:54.811Z,55.90
2019-04-05T05:56:23.792Z,55.90
2019-04-05T05:58:58.867Z,56.10
2019-04-05T06:01:25.183Z,56.10
2019-04-05T06:03:54.298Z,56.20
2019-04-05T06:06:23.350Z,56.10
2019-04-05T06:08:59.089Z,56.20
2019-04-05T06:11:28.330Z,56.10
2019-04-05T06:13:57.804Z,56.20
2019-04-05T06:16:28.132Z,56.40
2019-04-05T06:18:57.332Z,56.40
2019-04-05T06:21:26.430Z,56.30
2019-04-05T06:23:55.622Z,56.30
2019-04-05T06:26:24.660Z,56.50
2019-04-05T06:28:54.562Z,56.50
2019-04-05T06:31:24.924Z,56.70
2019-04-05T06:33:54.662Z,56.90
2019-04-05T06:36:24.969Z,57.20
2019-04-05T06:38:54.599Z,57.30
2019-04-05T06:41:28.492Z,57.50
2019-04-05T06:44:02.620Z,57.50
2019-04-05T06:46:32.231Z,57.90
2019-04-05T06:49:01.583Z,58.00
2019-04-05T06:51:30.619Z,58.30
2019-04-05T06:53:59.714Z,58.30
2019-04-05T06:56:29.720Z,58.40
2019-04-05T06:58:58.707Z,58.60
2019-04-05T07:01:27.878Z,58.80
2019-04-05T07:03:57.351Z,58.80
2019-04-05T07:06:26.901Z,59.30
2019-04-05T07:08:56.294Z,59.20
2019-04-05T07:11:25.360Z,59.50
2019-04-05T07:13:56.495Z,59.70
2019-04-05T07:16:25.591Z,60.00
2019-04-05T07:18:54.892Z,60.10
2019-04-05T07:21:23.970Z,59.90
2019-04-05T07:23:53.166Z,60.10
2019-04-05T07:26:22.472Z,60.70
2019-04-05T07:28:52.859Z,61.20
2019-04-05T07:31:22.084Z,61.30
2019-04-05T07:33:52.743Z,61.30
2019-04-05T07:36:22.258Z,61.90
2019-04-05T07:38:51.537Z,62.90
2019-04-05T07:41:20.528Z,61.90
2019-04-05T07:43:49.701Z,61.30
2019-04-05T07:46:18.758Z,61.50
2019-04-05T07:48:49.881Z,61.60
2019-04-05T07:51:23.683Z,61.70
2019-04-05T07:53:52.820Z,61.40
2019-04-05T07:56:22.085Z,61.60
2019-04-05T07:58:53.832Z,61.60
2019-04-05T08:01:23.508Z,61.80
2019-04-05T08:03:52.527Z,61.60
2019-04-05T08:06:21.615Z,61.80
2019-04-05T08:08:58.090Z,61.80
2019-04-05T08:11:29.042Z,62.00
2019-04-05T08:14:00.890Z,62.30
2019-04-05T08:16:30.538Z,62.50
2019-04-05T08:19:00.560Z,62.60
2019-04-05T08:21:30.082Z,62.80
2019-04-05T08:23:59.241Z,63.00
2019-04-05T08:26:29.082Z,63.30
2019-04-05T08:28:58.117Z,63.60
2019-04-05T08:31:27.118Z,63.90
2019-04-05T08:33:56.363Z,64.20
2019-04-05T08:36:25.458Z,65.20
2019-04-05T08:38:54.496Z,65.00
2019-04-05T08:41:23.782Z,65.10
2019-04-05T08:43:53.032Z,64.60
2019-04-05T08:46:22.160Z,64.60
2019-04-05T08:48:52.424Z,64.80
2019-04-05T08:51:21.687Z,65.10
2019-04-05T08:53:50.877Z,65.60
2019-04-05T08:56:20.286Z,65.80
2019-04-05T08:58:49.471Z,65.70
2019-04-05T09:01:21.647Z,66.00
2019-04-05T09:03:50.839Z,67.00
2019-04-05T09:06:22.121Z,67.00
2019-04-05T09:08:51.463Z,66.60
2019-04-05T09:11:20.687Z,66.30
2019-04-05T09:13:52.377Z,66.40
2019-04-05T09:16:21.954Z,66.60
2019-04-05T09:18:51.114Z,66.80
2019-04-05T09:21:20.377Z,66.90
2019-04-05T09:23:49.443Z,66.70
2019-04-05T09:26:18.588Z,67.00
2019-04-05T09:28:48.275Z,67.00
2019-04-05T09:31:17.647Z,66.80
2019-04-05T09:33:46.838Z,67.00
2019-04-05T09:36:18.305Z,67.20
2019-04-05T09:38:47.850Z,67.60
2019-04-05T09:41:17.325Z,67.90
2019-04-05T09:46:46.441Z,68.10
2019-04-05T09:49:10.540Z,68.40
2019-04-05T09:51:39.604Z,68.70
2019-04-05T09:54:08.716Z,68.70
2019-04-05T09:56:37.924Z,69.60
2019-04-05T09:59:06.989Z,69.00
2019-04-05T10:01:36.084Z,69.30
2019-04-05T10:04:05.227Z,69.40
2019-04-05T10:06:34.376Z,69.50
2019-04-05T10:09:04.802Z,70.00
2019-04-05T10:11:34.691Z,70.10
2019-04-05T10:14:03.860Z,70.30
2019-04-05T10:16:32.994Z,70.40
2019-04-05T10:19:02.409Z,70.50
2019-04-05T10:21:31.674Z,70.70
2019-04-05T10:24:00.619Z,71.20
2019-04-05T10:26:29.965Z,71.60
2019-04-05T10:28:59.176Z,72.00
2019-04-05T10:31:28.471Z,72.10
2019-04-05T10:33:57.657Z,72.30
2019-04-05T10:36:27.878Z,72.50
2019-04-05T10:38:57.104Z,72.60
2019-04-05T10:41:26.373Z,72.90
2019-04-05T10:43:58.229Z,72.90
2019-04-05T10:46:26.261Z,73.10
2019-04-05T10:49:05.026Z,72.90
2019-04-05T10:51:34.109Z,73.20
2019-04-05T10:54:03.230Z,73.20
2019-04-05T10:56:32.230Z,73.20
2019-04-05T10:59:01.664Z,73.80
2019-04-05T11:01:30.942Z,74.30
2019-04-05T11:04:00.823Z,74.00
2019-04-05T11:06:30.182Z,73.80
2019-04-05T11:08:59.222Z,73.70
2019-04-05T11:11:28.830Z,73.50
2019-04-05T11:13:57.834Z,73.00
2019-04-05T11:16:26.925Z,72.70
2019-04-05T11:19:02.284Z,72.50
2019-04-05T11:21:32.074Z,72.50
2019-04-05T11:24:01.770Z,72.60
2019-04-05T11:26:39.231Z,72.90
2019-04-05T11:29:07.904Z,72.50
2019-04-05T11:31:56.781Z,73.00
2019-04-05T11:34:19.563Z,72.30
2019-04-05T11:36:48.847Z,71.90
2019-04-05T11:39:20.251Z,71.80
2019-04-05T11:41:52.173Z,71.60
2019-04-05T11:44:22.655Z,71.30
2019-04-05T11:46:52.554Z,71.20
2019-04-05T11:49:22.295Z,70.90
2019-04-05T11:51:51.389Z,70.50
2019-04-05T11:54:20.459Z,70.20
2019-04-05T11:56:49.985Z,70.30
2019-04-05T11:59:19.530Z,70.10
2019-04-05T12:02:07.931Z,70.00
2019-04-05T12:04:37.409Z,69.80
2019-04-05T12:07:07.288Z,69.70
2019-04-05T12:09:36.317Z,69.30
2019-04-05T12:12:05.520Z,69.00
2019-04-05T12:14:36.709Z,68.80
2019-04-05T12:17:06.199Z,68.50
2019-04-05T12:19:38.150Z,68.60
2019-04-05T12:22:09.138Z,68.40
2019-04-05T12:24:38.607Z,68.30
2019-04-05T12:27:08.141Z,68.20
2019-04-05T12:29:37.438Z,68.10
2019-04-05T12:32:07.017Z,68.00
2019-04-05T12:34:36.628Z,67.70
2019-04-05T12:37:06.204Z,67.70
2019-04-05T12:39:37.167Z,67.70
2019-04-05T12:42:06.364Z,67.60
2019-04-05T12:44:35.524Z,67.20
2019-04-05T12:47:04.997Z,67.10
2019-04-05T12:49:34.069Z,67.80
2019-04-05T12:52:03.247Z,66.90
2019-04-05T12:54:32.518Z,66.80
2019-04-05T12:57:01.784Z,66.80
2019-04-05T12:59:31.319Z,66.70
2019-04-05T13:02:00.609Z,66.70
2019-04-05T13:04:29.768Z,66.80
2019-04-05T13:07:03.954Z,67.40
2019-04-05T13:09:33.131Z,66.70
2019-04-05T13:12:02.229Z,67.00
2019-04-05T13:14:36.659Z,67.10
2019-04-05T13:17:06.918Z,66.90
2019-04-05T13:19:36.905Z,66.70
2019-04-05T13:22:06.554Z,66.40
2019-04-05T13:24:39.390Z,66.40
2019-04-05T13:27:06.935Z,66.40
2019-04-05T13:29:36.205Z,66.40
2019-04-05T13:32:06.437Z,66.50
2019-04-05T13:34:35.626Z,67.40
2019-04-05T13:37:04.910Z,66.90
2019-04-05T13:39:34.308Z,66.80
2019-04-05T13:42:04.196Z,66.70
2019-04-05T13:44:33.527Z,66.50
2019-04-05T13:47:03.031Z,66.60
2019-04-05T13:49:32.487Z,66.50
2019-04-05T13:52:01.749Z,66.40
2019-04-05T13:54:31.157Z,66.40
2019-04-05T13:57:00.501Z,66.70
2019-04-05T13:59:29.721Z,67.20
2019-04-05T14:02:06.002Z,67.50
2019-04-05T14:04:29.995Z,67.30
2019-04-05T14:06:59.187Z,67.20
2019-04-05T14:09:28.395Z,67.40
2019-04-05T14:11:57.569Z,66.70
2019-04-05T14:14:28.387Z,66.70
2019-04-05T14:16:58.260Z,66.70
2019-04-05T14:19:28.987Z,66.70
2019-04-05T14:22:08.208Z,66.80
2019-04-05T14:24:31.010Z,66.70
2019-04-05T14:27:02.931Z,66.80
2019-04-05T14:29:33.182Z,67.10
2019-04-05T14:32:19.474Z,66.80
2019-04-05T14:34:36.447Z,66.80
2019-04-05T14:37:05.694Z,66.60
2019-04-05T14:39:34.918Z,66.40
2019-04-05T14:42:10.128Z,66.20
2019-04-05T14:44:35.081Z,66.00
2019-04-05T14:47:04.290Z,65.80
2019-04-05T14:49:33.382Z,65.70
2019-04-05T14:52:02.511Z,65.40
2019-04-05T14:54:31.897Z,65.50
2019-04-05T14:57:05.486Z,65.30
2019-04-05T14:59:32.882Z,65.50
2019-04-05T15:02:02.270Z,65.40
2019-04-05T15:04:31.588Z,65.40
2019-04-05T15:07:01.429Z,65.30
2019-04-05T15:09:30.514Z,65.00
2019-04-05T15:11:59.898Z,65.10
2019-04-05T15:14:29.112Z,65.30
2019-04-05T15:16:58.433Z,65.30
2019-04-05T15:19:27.701Z,65.40
2019-04-05T15:22:05.648Z,65.10
2019-04-05T15:24:29.103Z,64.60
2019-04-05T15:26:58.239Z,64.80
2019-04-05T15:29:27.317Z,64.90
2019-04-05T15:31:58.143Z,65.20
2019-04-05T15:34:29.175Z,65.10
2019-04-05T15:37:01.670Z,64.90
2019-04-05T15:39:32.293Z,65.00
2019-04-05T15:42:05.604Z,65.00
2019-04-05T15:44:34.944Z,64.80
2019-04-05T15:47:06.193Z,65.30
2019-04-05T15:49:35.892Z,65.40
2019-04-05T15:52:18.136Z,65.90
2019-04-05T15:54:37.853Z,66.20
2019-04-05T15:57:07.166Z,66.60
2019-04-05T15:59:36.231Z,66.60
2019-04-05T16:02:05.440Z,66.70
2019-04-05T16:04:35.764Z,66.80
2019-04-05T16:07:05.033Z,66.90
2019-04-05T16:09:34.420Z,67.00
2019-04-05T16:12:03.562Z,67.10
2019-04-05T16:14:40.592Z,67.30
2019-04-05T16:17:12.441Z,67.50
2019-04-05T16:19:40.515Z,67.60
2019-04-05T16:22:09.644Z,67.60
2019-04-05T16:24:38.826Z,67.70
2019-04-05T16:27:08.626Z,67.70
2019-04-05T16:29:37.732Z,68.00
2019-04-05T16:32:07.195Z,68.10
2019-04-05T16:34:36.170Z,68.10
2019-04-05T16:37:05.536Z,68.20
2019-04-05T16:39:38.184Z,68.40
2019-04-05T16:42:10.111Z,68.60
2019-04-05T16:44:38.492Z,68.80
2019-04-05T16:47:08.378Z,69.20
2019-04-05T16:49:38.231Z,69.40
2019-04-05T16:52:07.601Z,69.80
2019-04-05T16:54:37.102Z,69.90
2019-04-05T16:57:07.323Z,70.20
2019-04-05T16:59:37.645Z,70.50
2019-04-05T17:02:07.239Z,70.70
2019-04-05T17:04:36.524Z,70.80
2019-04-05T17:07:05.706Z,71.00
2019-04-05T17:09:34.829Z,71.40
2019-04-05T17:12:03.943Z,71.40
2019-04-05T17:14:33.272Z,71.50
2019-04-05T17:17:02.464Z,71.30
2019-04-05T17:19:31.672Z,71.60
2019-04-05T17:22:00.985Z,71.60
2019-04-05T17:24:30.327Z,71.80
2019-04-05T17:26:59.745Z,71.60
2019-04-05T17:29:29.089Z,71.60
2019-04-05T17:31:58.286Z,71.80
2019-04-05T17:34:27.592Z,72.10
2019-04-05T17:36:57.007Z,72.20
2019-04-05T17:39:26.662Z,72.50
2019-04-05T17:41:57.535Z,72.70
2019-04-05T17:44:26.769Z,73.00
2019-04-05T17:46:56.251Z,73.40
2019-04-05T17:49:26.711Z,74.00
2019-04-05T17:51:56.273Z,74.50
2019-04-05T17:54:25.940Z,75.10
2019-04-05T17:56:55.073Z,75.30
2019-04-05T17:59:24.396Z,75.80
2019-04-05T18:01:53.507Z,76.10
2019-04-05T18:04:22.734Z,76.60
2019-04-05T18:06:51.955Z,77.00
2019-04-05T18:09:21.108Z,78.00
2019-04-05T18:11:50.439Z,77.50
2019-04-05T18:14:19.605Z,77.70
2019-04-05T18:16:48.797Z,77.90
2019-04-05T18:19:17.942Z,77.80
2019-04-05T18:21:47.075Z,78.00
2019-04-05T18:24:16.293Z,78.20
2019-04-05T18:26:45.443Z,78.50
2019-04-05T18:29:14.482Z,78.50
2019-04-05T18:31:43.987Z,78.60
2019-04-05T18:34:13.075Z,78.80
2019-04-05T18:36:42.185Z,78.80
2019-04-05T18:39:11.689Z,79.00
2019-04-05T18:41:40.839Z,79.20
2019-04-05T18:44:10.299Z,79.40
2019-04-05T18:46:39.726Z,79.60
2019-04-05T18:49:11.614Z,79.50
2019-04-05T18:51:41.104Z,79.60
2019-04-05T18:54:10.474Z,79.80
2019-04-05T18:56:41.247Z,80.00
2019-04-05T18:59:10.375Z,80.00
2019-04-05T19:01:40.043Z,80.20
2019-04-05T19:04:09.121Z,80.30
2019-04-05T19:06:38.543Z,80.60
2019-04-05T19:09:08.353Z,80.60
2019-04-05T19:11:37.724Z,80.60
2019-04-05T19:14:06.940Z,80.90
2019-04-05T19:16:38.181Z,80.70
2019-04-05T19:19:07.722Z,81.00
2019-04-05T19:21:36.998Z,81.20
2019-04-05T19:24:06.437Z,81.00
2019-04-05T19:26:36.562Z,81.30
2019-04-05T19:29:06.184Z,81.20
2019-04-05T19:49:16.597Z,81.70
2019-04-05T19:51:45.822Z,81.20
2019-04-05T19:54:15.115Z,81.20
2019-04-05T19:56:44.895Z,81.30
2019-04-05T19:59:14.069Z,81.20
2019-04-05T20:01:43.234Z,81.30
2019-04-05T20:04:12.250Z,81.20
2019-04-05T20:06:41.622Z,81.40
2019-04-05T20:09:10.973Z,81.80
2019-04-05T20:11:40.253Z,81.80
2019-04-05T20:14:09.438Z,81.60
2019-04-05T20:16:38.838Z,81.60
2019-04-05T20:19:07.923Z,81.80
2019-04-05T20:21:37.587Z,82.50
2019-04-05T20:24:14.206Z,81.70
2019-04-05T20:26:37.603Z,82.00
2019-04-05T20:29:06.986Z,82.10
2019-04-05T20:31:36.178Z,82.40
2019-04-05T20:34:14.694Z,82.40
2019-04-05T20:36:44.003Z,82.60
2019-04-05T20:39:13.410Z,82.60
2019-04-05T20:41:42.477Z,82.40
2019-04-05T20:44:11.623Z,82.70
2019-04-05T20:46:40.820Z,82.70
2019-04-05T20:49:11.917Z,82.50
2019-04-05T20:51:41.420Z,82.60
2019-04-05T20:54:11.655Z,82.70
2019-04-05T20:56:40.827Z,82.70
2019-04-05T20:59:10.059Z,82.70
2019-04-05T21:01:39.581Z,82.60
2019-04-05T21:04:08.637Z,82.70
2019-04-05T21:06:37.884Z,82.60
2019-04-05T21:09:08.401Z,82.60
2019-04-05T21:11:37.772Z,82.50
2019-04-05T21:14:06.830Z,82.50
2019-04-05T21:16:35.919Z,82.90
2019-04-05T21:19:05.168Z,82.70
2019-04-05T21:21:37.504Z,82.50
2019-04-05T21:24:06.711Z,82.60
2019-04-05T21:26:35.743Z,83.00
2019-04-05T21:29:04.976Z,83.10
2019-04-05T21:31:34.542Z,83.30
2019-04-05T21:34:03.764Z,83.20
2019-04-05T21:36:32.825Z,83.20
2019-04-05T21:39:02.238Z,83.10
2019-04-05T21:41:31.375Z,83.30
2019-04-05T21:44:00.643Z,83.40
2019-04-05T21:46:32.180Z,83.20
2019-04-05T21:49:01.282Z,83.40
2019-04-05T21:51:30.474Z,83.50
2019-04-05T21:53:59.666Z,83.60
2019-04-05T21:56:29.012Z,83.60
2019-04-05T21:58:58.216Z,83.70
2019-04-05T22:01:27.569Z,83.80
2019-04-05T22:03:57.406Z,84.40
2019-04-05T22:06:26.684Z,84.50
2019-04-05T22:08:56.224Z,84.80
2019-04-05T22:11:27.636Z,85.00
2019-04-05T22:13:57.307Z,85.10
2019-04-05T22:16:27.303Z,85.20
2019-04-05T22:18:56.418Z,85.40
2019-04-05T22:21:25.923Z,85.50
2019-04-05T22:23:56.446Z,85.70
2019-04-05T22:26:25.520Z,85.70
2019-04-05T22:28:54.450Z,86.00
2019-04-05T22:31:23.474Z,86.10
2019-04-05T22:33:52.519Z,86.10
2019-04-05T22:36:21.636Z,86.10
2019-04-05T22:38:50.868Z,85.90
2019-04-05T22:41:20.310Z,85.80
2019-04-05T22:43:51.714Z,85.90
2019-04-05T22:46:20.760Z,86.10
2019-04-05T22:48:49.905Z,86.20
2019-04-05T22:51:18.974Z,86.30
2019-04-05T22:53:48.050Z,86.40
2019-04-05T22:56:17.162Z,86.40
2019-04-05T22:58:47.293Z,86.40
2019-04-05T23:01:16.364Z,86.40
2019-04-05T23:03:45.382Z,86.40
2019-04-05T23:06:14.425Z,86.40
2019-04-05T23:08:43.554Z,86.50
2019-04-05T23:11:12.789Z,86.60
2019-04-05T23:13:42.126Z,86.80
2019-04-05T23:16:11.233Z,87.00
2019-04-05T23:18:40.215Z,87.30
2019-04-05T23:21:09.216Z,87.30
2019-04-05T23:23:38.200Z,87.40
2019-04-05T23:26:07.234Z,87.60
2019-04-05T23:28:36.328Z,87.40
2019-04-05T23:31:05.374Z,87.40
2019-04-05T23:33:34.433Z,87.40
2019-04-05T23:36:03.733Z,87.60
2019-04-05T23:38:32.946Z,87.50
2019-04-05T23:41:04.281Z,87.40
2019-04-05T23:43:33.554Z,87.50
2019-04-05T23:46:02.602Z,88.60
2019-04-05T23:48:31.740Z,87.90
2019-04-05T23:51:01.598Z,88.00
2019-04-05T23:53:30.639Z,88.10
2019-04-05T23:55:59.528Z,88.00
2019-04-05T23:58:28.789Z,88.00
